createdAt,value
2022-09-22T00:02:42.332Z,9.90
2022-09-22T00:07:44.096Z,10.04
2022-09-22T00:12:47.284Z,9.86
2022-09-22T00:17:48.891Z,9.84
2022-09-22T00:22:51.243Z,9.89
2022-09-22T00:27:54.479Z,9.78
2022-09-22T00:32:56.229Z,9.65
2022-09-22T00:37:57.820Z,9.63
2022-09-22T00:43:21.122Z,9.59
2022-09-22T00:48:25.054Z,9.54
2022-09-22T00:53:27.201Z,9.39
2022-09-22T00:58:35.931Z,9.30
2022-09-22T01:03:39.279Z,9.32
2022-09-22T01:08:43.648Z,9.30
2022-09-22T01:13:59.451Z,9.32
2022-09-22T01:19:48.666Z,9.23
2022-09-22T01:25:09.773Z,9.16
2022-09-22T01:30:20.721Z,8.90
2022-09-22T01:35:35.557Z,8.92
2022-09-22T01:40:47.072Z,8.78
2022-09-22T01:45:49.753Z,8.69
2022-09-22T01:50:56.384Z,8.51
2022-09-22T01:56:02.956Z,8.32
2022-09-22T02:01:14.599Z,8.18
2022-09-22T02:06:23.207Z,8.08
2022-09-22T02:11:25.087Z,8.40
2022-09-22T02:16:27.689Z,8.32
2022-09-22T02:21:29.364Z,8.05
2022-09-22T02:26:34.124Z,7.74
2022-09-22T02:31:38.654Z,7.50
2022-09-22T02:37:37.689Z,7.51
2022-09-22T02:42:52.183Z,7.48
2022-09-22T02:48:02.016Z,7.45
2022-09-22T02:53:11.332Z,7.29
2022-09-22T02:58:15.286Z,7.15
2022-09-22T03:03:16.911Z,7.03
2022-09-22T03:08:18.548Z,6.91
2022-09-22T03:13:20.258Z,6.77
2022-09-22T03:18:21.993Z,6.88
2022-09-22T03:23:23.653Z,6.81
2022-09-22T03:28:25.355Z,6.80
2022-09-22T03:33:27.048Z,6.71
2022-09-22T03:38:28.756Z,6.76
2022-09-22T03:43:30.420Z,6.74
2022-09-22T03:48:32.034Z,6.47
2022-09-22T03:53:33.793Z,6.60
2022-09-22T03:58:36.571Z,6.72
2022-09-22T04:03:39.443Z,6.88
2022-09-22T04:08:41.079Z,6.67
2022-09-22T04:13:46.179Z,6.47
2022-09-22T04:18:48.284Z,6.37
2022-09-22T04:23:49.909Z,6.22
2022-09-22T04:28:51.554Z,6.23
2022-09-22T04:33:53.209Z,6.04
2022-09-22T04:38:55.420Z,6.07
2022-09-22T04:43:57.168Z,6.23
2022-09-22T04:48:58.852Z,6.06
2022-09-22T04:54:00.576Z,6.22
2022-09-22T04:59:02.757Z,6.38
2022-09-22T05:04:04.489Z,6.43
2022-09-22T05:09:06.215Z,6.35
2022-09-22T05:14:08.046Z,6.32
2022-09-22T05:19:10.171Z,6.22
2022-09-22T05:24:11.757Z,6.21
2022-09-22T05:29:13.382Z,6.38
2022-09-22T05:34:14.999Z,6.47
2022-09-22T05:39:16.638Z,6.72
2022-09-22T05:44:18.363Z,7.06
2022-09-22T05:49:19.967Z,7.05
2022-09-22T05:54:23.460Z,7.18
2022-09-22T05:59:25.196Z,7.54
2022-09-22T06:04:27.333Z,7.81
2022-09-22T06:09:28.945Z,7.81
2022-09-22T06:14:30.570Z,7.73
2022-09-22T06:19:32.764Z,7.68
2022-09-22T06:24:34.459Z,8.00
2022-09-22T06:29:38.000Z,8.11
2022-09-22T06:34:39.633Z,8.35
2022-09-22T06:39:41.226Z,8.54
2022-09-22T06:44:44.530Z,8.62
2022-09-22T06:49:46.777Z,8.63
2022-09-22T06:54:50.973Z,8.85
2022-09-22T06:59:54.356Z,8.93
2022-09-22T07:04:59.680Z,9.26
2022-09-22T07:10:01.378Z,9.75
2022-09-22T07:15:03.096Z,10.24
2022-09-22T07:20:05.713Z,13.66
2022-09-22T07:25:08.724Z,18.15
2022-09-22T07:30:10.953Z,21.81
2022-09-22T07:35:12.623Z,21.23
2022-09-22T07:40:14.730Z,29.35
2022-09-22T07:45:16.769Z,31.35
2022-09-22T07:50:18.501Z,31.44
2022-09-22T07:55:25.207Z,33.40
2022-09-22T08:00:33.002Z,31.54
2022-09-22T08:05:34.905Z,26.98
2022-09-22T08:10:36.533Z,29.40
2022-09-22T08:15:42.244Z,28.23
2022-09-22T08:20:45.074Z,26.61
2022-09-22T08:25:46.956Z,21.74
2022-09-22T08:30:49.028Z,21.96
2022-09-22T08:35:54.608Z,22.50
2022-09-22T08:41:17.570Z,25.46
2022-09-22T08:46:19.282Z,20.30
2022-09-22T08:51:46.156Z,24.02
2022-09-22T08:57:19.689Z,23.30
2022-09-22T09:02:41.999Z,24.08
2022-09-22T09:08:01.840Z,21.31
2022-09-22T09:13:22.228Z,21.25
2022-09-22T09:18:30.893Z,22.20
2022-09-22T09:29:16.974Z,25.29
2022-09-22T09:34:24.414Z,20.58
2022-09-22T09:39:30.717Z,25.12
2022-09-22T09:44:40.042Z,22.52
2022-09-22T09:49:41.755Z,17.63
2022-09-22T09:54:46.267Z,16.21
2022-09-22T10:00:28.183Z,19.69
2022-09-22T10:05:32.471Z,23.25
2022-09-22T10:10:41.356Z,21.69
2022-09-22T10:15:43.503Z,18.88
2022-09-22T10:20:45.152Z,21.18
2022-09-22T10:25:48.361Z,23.08
2022-09-22T10:31:04.912Z,21.77
2022-09-22T10:36:12.235Z,23.00
2022-09-22T10:41:23.313Z,27.12
2022-09-22T10:46:43.370Z,25.67
2022-09-22T10:52:09.400Z,22.57
2022-09-22T10:57:43.934Z,20.96
2022-09-22T11:03:05.491Z,18.83
2022-09-22T11:08:31.301Z,18.08
2022-09-22T11:13:41.910Z,18.82
2022-09-22T11:19:06.147Z,18.25
2022-09-22T11:24:32.456Z,20.80
2022-09-22T11:29:56.270Z,23.27
2022-09-22T11:35:25.575Z,24.70
2022-09-22T11:40:41.415Z,25.38
2022-09-22T11:45:54.356Z,27.88
2022-09-22T11:51:09.544Z,25.63
2022-09-22T11:56:33.393Z,25.92
2022-09-22T12:01:39.054Z,24.69
2022-09-22T12:06:44.998Z,24.01
2022-09-22T12:11:46.767Z,23.19
2022-09-22T12:16:51.414Z,20.82
2022-09-22T12:21:57.738Z,23.58
2022-09-22T12:27:11.363Z,22.37
2022-09-22T12:32:39.553Z,22.09
2022-09-22T12:37:41.260Z,18.73
2022-09-22T12:42:49.594Z,17.82
2022-09-22T12:47:53.928Z,17.12
2022-09-22T12:53:23.832Z,17.60
2022-09-22T12:58:28.491Z,21.61
2022-09-22T13:03:30.692Z,23.10
2022-09-22T13:08:32.661Z,22.78
2022-09-22T13:13:42.310Z,22.30
2022-09-22T13:18:46.872Z,23.83
2022-09-22T13:23:51.603Z,21.33
2022-09-22T13:29:05.323Z,20.85
2022-09-22T13:34:33.469Z,21.41
2022-09-22T13:39:42.231Z,21.21
2022-09-22T13:44:54.760Z,20.84
2022-09-22T13:50:03.284Z,20.45
2022-09-22T13:55:19.947Z,20.87
2022-09-22T14:00:26.448Z,19.84
2022-09-22T14:05:31.879Z,19.67
2022-09-22T14:10:34.102Z,19.51
2022-09-22T14:15:47.649Z,17.97
2022-09-22T14:20:49.378Z,16.85
2022-09-22T14:25:51.106Z,15.84
2022-09-22T14:30:53.061Z,15.90
2022-09-22T14:36:03.125Z,16.09
2022-09-22T14:41:22.428Z,16.87
2022-09-22T14:46:36.693Z,17.58
2022-09-22T14:51:38.340Z,17.69
2022-09-22T14:56:43.883Z,17.74
2022-09-22T15:02:07.314Z,17.93
2022-09-22T15:07:24.752Z,17.63
2022-09-22T15:12:49.354Z,17.68
2022-09-22T15:18:11.735Z,17.81
2022-09-22T15:23:16.548Z,17.41
2022-09-22T15:28:20.793Z,16.79
2022-09-22T15:33:22.661Z,16.32
2022-09-22T15:38:27.605Z,16.16
2022-09-22T15:43:31.090Z,16.06
2022-09-22T15:48:38.436Z,16.07
2022-09-22T15:53:41.655Z,16.39
2022-09-22T15:58:44.072Z,16.30
2022-09-22T16:03:46.380Z,16.10
2022-09-22T16:08:52.689Z,15.70
2022-09-22T16:13:58.244Z,15.27
2022-09-22T16:19:00.559Z,14.99
2022-09-22T16:24:08.650Z,14.63
2022-09-22T16:29:11.358Z,14.36
2022-09-22T16:34:13.056Z,13.90
2022-09-22T16:39:14.710Z,13.68
2022-09-22T16:44:16.448Z,13.17
2022-09-22T16:49:20.312Z,12.83
2022-09-22T16:54:22.097Z,12.55
2022-09-22T16:59:23.768Z,12.40
2022-09-22T17:04:25.395Z,11.96
2022-09-22T17:09:27.372Z,11.78
2022-09-22T17:14:32.517Z,11.92
2022-09-22T17:19:34.345Z,11.52
2022-09-22T17:24:35.994Z,11.19
2022-09-22T17:29:37.931Z,10.75
2022-09-22T17:34:41.187Z,10.40
2022-09-22T17:39:43.645Z,10.45
2022-09-22T17:44:45.284Z,10.55
2022-09-22T17:50:05.431Z,10.48
2022-09-22T17:55:12.671Z,10.29
2022-09-22T18:00:17.211Z,9.87
2022-09-22T18:05:21.422Z,10.04
2022-09-22T18:10:23.531Z,9.80
2022-09-22T18:15:26.773Z,9.37
2022-09-22T18:20:28.828Z,9.56
2022-09-22T18:25:31.723Z,9.28
2022-09-22T18:30:33.901Z,9.29
2022-09-22T18:35:35.497Z,8.94
2022-09-22T18:40:37.154Z,8.89
2022-09-22T18:45:38.844Z,8.85
2022-09-22T18:50:41.034Z,8.96
2022-09-22T18:55:42.620Z,8.78
2022-09-22T19:00:44.244Z,8.55
2022-09-22T19:05:45.852Z,8.24
2022-09-22T19:10:48.400Z,8.11
2022-09-22T19:15:54.077Z,8.22
2022-09-22T19:20:58.518Z,8.12
2022-09-22T19:26:00.144Z,8.16
2022-09-22T19:31:01.769Z,8.37
2022-09-22T19:36:03.705Z,7.67
2022-09-22T19:41:05.360Z,7.89
2022-09-22T19:46:07.187Z,7.98
2022-09-22T19:51:08.824Z,7.87
2022-09-22T19:56:10.432Z,7.83
2022-09-22T20:01:28.142Z,7.84
2022-09-22T20:06:30.136Z,7.91
2022-09-22T20:11:33.457Z,7.78
2022-09-22T20:16:35.066Z,7.62
2022-09-22T20:21:37.136Z,7.63
2022-09-22T20:26:38.852Z,7.63
2022-09-22T20:31:41.579Z,7.51
2022-09-22T20:36:43.433Z,7.37
2022-09-22T20:41:45.074Z,7.16
2022-09-22T20:46:49.825Z,7.24
2022-09-22T20:51:51.632Z,7.40
2022-09-22T20:56:53.397Z,7.26
2022-09-22T21:01:55.010Z,6.97
2022-09-22T21:06:57.473Z,6.91
2022-09-22T21:11:59.082Z,6.87
2022-09-22T21:17:06.273Z,6.72
2022-09-22T21:22:07.917Z,6.73
2022-09-22T21:27:09.526Z,6.80
2022-09-22T21:32:11.282Z,6.84
2022-09-22T21:37:14.532Z,6.81
2022-09-22T21:42:16.122Z,6.87
2022-09-22T21:47:17.722Z,6.92
2022-09-22T21:52:19.316Z,7.02
2022-09-22T21:57:20.899Z,6.78
2022-09-22T22:02:22.500Z,6.88
2022-09-22T22:07:24.119Z,6.48
2022-09-22T22:12:25.828Z,6.30
2022-09-22T22:17:27.444Z,6.39
2022-09-22T22:22:29.052Z,6.26
2022-09-22T22:27:30.687Z,6.28
2022-09-22T22:32:32.236Z,6.05
2022-09-22T22:37:33.858Z,6.22
2022-09-22T22:42:35.486Z,6.13
2022-09-22T22:47:37.099Z,5.97
2022-09-22T22:52:41.366Z,5.98
2022-09-22T22:57:42.982Z,6.03
2022-09-22T23:02:44.579Z,5.74
2022-09-22T23:07:46.177Z,5.57
2022-09-22T23:12:47.864Z,5.70
2022-09-22T23:17:49.612Z,5.73
2022-09-22T23:22:51.229Z,5.71
2022-09-22T23:27:52.980Z,5.64
2022-09-22T23:32:56.288Z,5.64
2022-09-22T23:37:58.238Z,5.55
2022-09-22T23:42:59.970Z,5.57
2022-09-22T23:48:01.776Z,5.63
2022-09-22T23:53:03.508Z,5.66
2022-09-22T23:58:05.347Z,5.39
